sensor_id;sensor_type;location;lat;lon;timestamp;temperature;humidity
530;DHT22;251;48.704;9.210;2023-04-24T00:00:37;10.40;53.60
530;DHT22;251;48.704;9.210;2023-04-24T00:03:07;10.00;53.60
530;DHT22;251;48.704;9.210;2023-04-24T00:05:34;10.10;52.90
530;DHT22;251;48.704;9.210;2023-04-24T00:08:01;10.30;52.70
530;DHT22;251;48.704;9.210;2023-04-24T00:10:27;10.30;53.80
530;DHT22;251;48.704;9.210;2023-04-24T00:12:54;10.20;55.00
530;DHT22;251;48.704;9.210;2023-04-24T00:15:21;10.50;56.20
530;DHT22;251;48.704;9.210;2023-04-24T00:17:48;10.00;56.70
530;DHT22;251;48.704;9.210;2023-04-24T00:20:16;10.30;56.80
530;DHT22;251;48.704;9.210;2023-04-24T00:22:44;10.20;57.70
530;DHT22;251;48.704;9.210;2023-04-24T00:25:11;10.20;57.00
530;DHT22;251;48.704;9.210;2023-04-24T00:27:37;10.20;57.20
530;DHT22;251;48.704;9.210;2023-04-24T00:30:05;10.00;58.00
530;DHT22;251;48.704;9.210;2023-04-24T00:32:32;9.90;58.50
530;DHT22;251;48.704;9.210;2023-04-24T00:34:59;9.90;60.90
530;DHT22;251;48.704;9.210;2023-04-24T00:37:27;9.90;63.30
530;DHT22;251;48.704;9.210;2023-04-24T00:39:54;9.90;62.10
530;DHT22;251;48.704;9.210;2023-04-24T00:42:21;9.70;60.70
530;DHT22;251;48.704;9.210;2023-04-24T00:44:48;9.90;59.30
530;DHT22;251;48.704;9.210;2023-04-24T00:47:15;9.90;57.50
530;DHT22;251;48.704;9.210;2023-04-24T00:49:42;10.20;51.70
530;DHT22;251;48.704;9.210;2023-04-24T00:52:08;10.10;51.40
530;DHT22;251;48.704;9.210;2023-04-24T00:54:37;10.30;51.00
530;DHT22;251;48.704;9.210;2023-04-24T00:57:04;10.10;49.70
530;DHT22;251;48.704;9.210;2023-04-24T00:59:31;10.60;46.80
530;DHT22;251;48.704;9.210;2023-04-24T01:01:58;10.30;46.10
530;DHT22;251;48.704;9.210;2023-04-24T01:04:25;10.40;44.70
530;DHT22;251;48.704;9.210;2023-04-24T01:06:53;10.60;44.60
530;DHT22;251;48.704;9.210;2023-04-24T01:09:21;10.70;44.10
530;DHT22;251;48.704;9.210;2023-04-24T01:11:51;10.60;42.70
530;DHT22;251;48.704;9.210;2023-04-24T01:14:18;10.70;42.80
530;DHT22;251;48.704;9.210;2023-04-24T01:16:48;10.60;42.90
530;DHT22;251;48.704;9.210;2023-04-24T01:19:15;10.60;41.00
530;DHT22;251;48.704;9.210;2023-04-24T01:21:44;10.60;41.30
530;DHT22;251;48.704;9.210;2023-04-24T01:24:13;10.70;41.90
530;DHT22;251;48.704;9.210;2023-04-24T01:26:40;10.70;41.50
530;DHT22;251;48.704;9.210;2023-04-24T01:29:07;10.60;40.90
530;DHT22;251;48.704;9.210;2023-04-24T01:31:35;10.80;42.00
530;DHT22;251;48.704;9.210;2023-04-24T01:34:03;10.90;42.40
530;DHT22;251;48.704;9.210;2023-04-24T01:36:32;10.50;43.50
530;DHT22;251;48.704;9.210;2023-04-24T01:39:00;10.70;43.30
530;DHT22;251;48.704;9.210;2023-04-24T01:41:29;10.70;44.20
530;DHT22;251;48.704;9.210;2023-04-24T01:43:57;10.30;44.10
530;DHT22;251;48.704;9.210;2023-04-24T01:46:24;10.60;44.10
530;DHT22;251;48.704;9.210;2023-04-24T01:48:51;10.40;45.80
530;DHT22;251;48.704;9.210;2023-04-24T01:51:19;10.50;46.40
530;DHT22;251;48.704;9.210;2023-04-24T01:53:45;10.40;44.80
530;DHT22;251;48.704;9.210;2023-04-24T01:56:12;10.50;44.60
530;DHT22;251;48.704;9.210;2023-04-24T01:58:42;10.30;46.00
530;DHT22;251;48.704;9.210;2023-04-24T02:01:15;10.20;45.50
530;DHT22;251;48.704;9.210;2023-04-24T02:03:41;10.30;47.40
530;DHT22;251;48.704;9.210;2023-04-24T02:06:08;10.50;46.40
530;DHT22;251;48.704;9.210;2023-04-24T02:08:35;10.50;44.70
530;DHT22;251;48.704;9.210;2023-04-24T02:11:02;10.30;46.20
530;DHT22;251;48.704;9.210;2023-04-24T02:13:30;10.60;44.50
530;DHT22;251;48.704;9.210;2023-04-24T02:15:59;10.40;44.30
530;DHT22;251;48.704;9.210;2023-04-24T02:18:26;10.20;45.10
530;DHT22;251;48.704;9.210;2023-04-24T02:20:53;10.30;46.20
530;DHT22;251;48.704;9.210;2023-04-24T02:23:20;10.20;44.20
530;DHT22;251;48.704;9.210;2023-04-24T02:25:47;10.50;47.60
530;DHT22;251;48.704;9.210;2023-04-24T02:28:14;10.30;46.30
530;DHT22;251;48.704;9.210;2023-04-24T02:30:40;10.20;44.50
530;DHT22;251;48.704;9.210;2023-04-24T02:33:09;10.30;44.70
530;DHT22;251;48.704;9.210;2023-04-24T02:35:35;10.40;46.20
530;DHT22;251;48.704;9.210;2023-04-24T02:38:02;9.90;46.60
530;DHT22;251;48.704;9.210;2023-04-24T02:40:29;10.10;45.60
530;DHT22;251;48.704;9.210;2023-04-24T02:42:56;9.90;47.40
530;DHT22;251;48.704;9.210;2023-04-24T02:45:23;10.40;46.30
530;DHT22;251;48.704;9.210;2023-04-24T02:47:50;10.10;46.40
530;DHT22;251;48.704;9.210;2023-04-24T02:50:19;10.40;46.00
530;DHT22;251;48.704;9.210;2023-04-24T02:52:45;10.30;45.30
530;DHT22;251;48.704;9.210;2023-04-24T02:55:13;10.20;44.70
530;DHT22;251;48.704;9.210;2023-04-24T02:57:39;10.20;44.80
530;DHT22;251;48.704;9.210;2023-04-24T03:00:07;10.60;46.10
530;DHT22;251;48.704;9.210;2023-04-24T03:02:34;10.60;45.60
530;DHT22;251;48.704;9.210;2023-04-24T03:05:01;10.30;45.80
530;DHT22;251;48.704;9.210;2023-04-24T03:07:30;10.30;46.30
530;DHT22;251;48.704;9.210;2023-04-24T03:09:58;10.50;45.90
530;DHT22;251;48.704;9.210;2023-04-24T03:12:26;10.50;46.10
530;DHT22;251;48.704;9.210;2023-04-24T03:14:52;10.40;47.30
530;DHT22;251;48.704;9.210;2023-04-24T03:17:19;10.50;46.90
530;DHT22;251;48.704;9.210;2023-04-24T03:19:46;10.50;46.80
530;DHT22;251;48.704;9.210;2023-04-24T03:22:13;10.50;46.20
530;DHT22;251;48.704;9.210;2023-04-24T03:24:42;10.50;46.00
530;DHT22;251;48.704;9.210;2023-04-24T03:27:09;10.20;46.30
530;DHT22;251;48.704;9.210;2023-04-24T03:30:06;10.20;47.70
530;DHT22;251;48.704;9.210;2023-04-24T03:32:53;10.00;47.10
530;DHT22;251;48.704;9.210;2023-04-24T03:35:25;10.00;49.20
530;DHT22;251;48.704;9.210;2023-04-24T03:37:52;9.90;51.70
530;DHT22;251;48.704;9.210;2023-04-24T03:40:41;9.80;52.20
530;DHT22;251;48.704;9.210;2023-04-24T03:43:26;10.00;52.10
530;DHT22;251;48.704;9.210;2023-04-24T03:45:55;9.80;53.10
530;DHT22;251;48.704;9.210;2023-04-24T03:48:22;10.10;52.70
530;DHT22;251;48.704;9.210;2023-04-24T03:50:49;10.10;51.70
530;DHT22;251;48.704;9.210;2023-04-24T03:53:16;9.80;53.90
530;DHT22;251;48.704;9.210;2023-04-24T03:55:45;9.50;54.80
530;DHT22;251;48.704;9.210;2023-04-24T03:58:13;9.60;54.70
530;DHT22;251;48.704;9.210;2023-04-24T04:00:40;9.80;55.30
530;DHT22;251;48.704;9.210;2023-04-24T04:03:36;9.50;56.00
530;DHT22;251;48.704;9.210;2023-04-24T04:06:03;9.50;57.20
530;DHT22;251;48.704;9.210;2023-04-24T04:08:29;9.10;57.70
530;DHT22;251;48.704;9.210;2023-04-24T04:10:58;9.20;59.40
530;DHT22;251;48.704;9.210;2023-04-24T04:13:25;9.50;61.30
530;DHT22;251;48.704;9.210;2023-04-24T04:15:52;9.60;61.20
530;DHT22;251;48.704;9.210;2023-04-24T04:18:19;9.60;61.50
530;DHT22;251;48.704;9.210;2023-04-24T04:20:46;9.50;60.30
530;DHT22;251;48.704;9.210;2023-04-24T04:23:14;9.60;59.60
530;DHT22;251;48.704;9.210;2023-04-24T04:25:51;9.60;57.20
530;DHT22;251;48.704;9.210;2023-04-24T04:28:23;9.60;56.40
530;DHT22;251;48.704;9.210;2023-04-24T04:30:50;9.70;53.50
530;DHT22;251;48.704;9.210;2023-04-24T04:33:19;10.00;51.80
530;DHT22;251;48.704;9.210;2023-04-24T04:35:47;10.00;51.10
530;DHT22;251;48.704;9.210;2023-04-24T04:38:15;9.80;52.50
530;DHT22;251;48.704;9.210;2023-04-24T04:40:57;10.00;53.80
530;DHT22;251;48.704;9.210;2023-04-24T04:43:29;9.80;51.40
530;DHT22;251;48.704;9.210;2023-04-24T04:45:58;9.70;46.70
530;DHT22;251;48.704;9.210;2023-04-24T04:48:45;9.20;51.50
530;DHT22;251;48.704;9.210;2023-04-24T04:51:11;8.90;50.90
530;DHT22;251;48.704;9.210;2023-04-24T04:53:39;8.90;54.20
530;DHT22;251;48.704;9.210;2023-04-24T04:56:07;8.80;58.20
530;DHT22;251;48.704;9.210;2023-04-24T04:58:41;8.90;60.70
530;DHT22;251;48.704;9.210;2023-04-24T05:01:11;8.80;62.80
530;DHT22;251;48.704;9.210;2023-04-24T05:03:41;8.60;64.20
530;DHT22;251;48.704;9.210;2023-04-24T05:06:11;8.50;67.50
530;DHT22;251;48.704;9.210;2023-04-24T05:08:39;8.90;72.80
530;DHT22;251;48.704;9.210;2023-04-24T05:11:09;8.70;73.00
530;DHT22;251;48.704;9.210;2023-04-24T05:13:38;8.60;76.30
530;DHT22;251;48.704;9.210;2023-04-24T05:16:09;8.70;75.30
530;DHT22;251;48.704;9.210;2023-04-24T05:18:36;8.80;74.70
530;DHT22;251;48.704;9.210;2023-04-24T05:21:04;8.80;76.50
530;DHT22;251;48.704;9.210;2023-04-24T05:23:32;8.90;71.20
530;DHT22;251;48.704;9.210;2023-04-24T05:25:58;8.70;75.50
530;DHT22;251;48.704;9.210;2023-04-24T05:28:25;8.90;76.30
530;DHT22;251;48.704;9.210;2023-04-24T05:31:02;8.70;74.30
530;DHT22;251;48.704;9.210;2023-04-24T05:33:31;8.80;75.60
530;DHT22;251;48.704;9.210;2023-04-24T05:35:58;9.20;74.70
530;DHT22;251;48.704;9.210;2023-04-24T05:38:25;9.20;74.10
530;DHT22;251;48.704;9.210;2023-04-24T05:40:52;9.20;71.40
530;DHT22;251;48.704;9.210;2023-04-24T05:43:19;9.20;69.20
530;DHT22;251;48.704;9.210;2023-04-24T05:45:46;9.50;67.10
530;DHT22;251;48.704;9.210;2023-04-24T05:48:13;9.50;64.70
530;DHT22;251;48.704;9.210;2023-04-24T05:50:41;9.30;62.00
530;DHT22;251;48.704;9.210;2023-04-24T05:53:08;9.60;58.60
530;DHT22;251;48.704;9.210;2023-04-24T05:55:37;9.70;54.70
530;DHT22;251;48.704;9.210;2023-04-24T05:58:03;9.70;57.20
530;DHT22;251;48.704;9.210;2023-04-24T06:00:32;9.80;57.10
530;DHT22;251;48.704;9.210;2023-04-24T06:03:04;9.70;50.90
530;DHT22;251;48.704;9.210;2023-04-24T06:05:31;9.60;50.90
530;DHT22;251;48.704;9.210;2023-04-24T06:07:59;9.50;52.90
530;DHT22;251;48.704;9.210;2023-04-24T06:10:31;9.50;55.40
530;DHT22;251;48.704;9.210;2023-04-24T06:12:58;9.80;55.90
530;DHT22;251;48.704;9.210;2023-04-24T06:15:28;9.50;56.00
530;DHT22;251;48.704;9.210;2023-04-24T06:17:59;9.40;57.50
530;DHT22;251;48.704;9.210;2023-04-24T06:20:26;9.50;57.70
530;DHT22;251;48.704;9.210;2023-04-24T06:22:53;9.60;54.80
530;DHT22;251;48.704;9.210;2023-04-24T06:25:21;9.40;57.50
530;DHT22;251;48.704;9.210;2023-04-24T06:27:50;9.20;56.50
530;DHT22;251;48.704;9.210;2023-04-24T06:30:17;9.60;57.30
530;DHT22;251;48.704;9.210;2023-04-24T06:32:43;9.50;54.00
530;DHT22;251;48.704;9.210;2023-04-24T06:35:10;9.60;53.10
530;DHT22;251;48.704;9.210;2023-04-24T06:37:38;9.80;51.60
530;DHT22;251;48.704;9.210;2023-04-24T06:40:06;9.80;48.50
530;DHT22;251;48.704;9.210;2023-04-24T06:42:35;10.10;45.50
530;DHT22;251;48.704;9.210;2023-04-24T06:45:03;10.50;45.10
530;DHT22;251;48.704;9.210;2023-04-24T06:47:31;10.70;44.20
530;DHT22;251;48.704;9.210;2023-04-24T06:49:58;11.20;43.30
530;DHT22;251;48.704;9.210;2023-04-24T06:52:28;11.10;36.00
530;DHT22;251;48.704;9.210;2023-04-24T06:55:00;11.30;36.70
530;DHT22;251;48.704;9.210;2023-04-24T06:57:27;11.40;32.70
530;DHT22;251;48.704;9.210;2023-04-24T06:59:56;11.30;32.60
530;DHT22;251;48.704;9.210;2023-04-24T07:02:23;11.60;33.00
530;DHT22;251;48.704;9.210;2023-04-24T07:04:49;11.70;27.60
530;DHT22;251;48.704;9.210;2023-04-24T07:07:17;11.60;27.90
530;DHT22;251;48.704;9.210;2023-04-24T07:09:43;11.80;29.10
530;DHT22;251;48.704;9.210;2023-04-24T07:12:11;11.70;28.00
530;DHT22;251;48.704;9.210;2023-04-24T07:14:39;11.80;27.60
530;DHT22;251;48.704;9.210;2023-04-24T07:17:07;11.80;28.80
530;DHT22;251;48.704;9.210;2023-04-24T07:19:34;11.80;26.60
530;DHT22;251;48.704;9.210;2023-04-24T07:22:01;12.20;26.10
530;DHT22;251;48.704;9.210;2023-04-24T07:24:29;11.70;27.40
530;DHT22;251;48.704;9.210;2023-04-24T07:26:57;11.30;26.60
530;DHT22;251;48.704;9.210;2023-04-24T07:29:25;11.10;28.20
530;DHT22;251;48.704;9.210;2023-04-24T07:31:51;10.90;31.00
530;DHT22;251;48.704;9.210;2023-04-24T07:34:20;10.60;30.50
530;DHT22;251;48.704;9.210;2023-04-24T07:36:47;10.30;34.10
530;DHT22;251;48.704;9.210;2023-04-24T07:39:14;10.50;33.70
530;DHT22;251;48.704;9.210;2023-04-24T07:41:41;10.30;31.40
530;DHT22;251;48.704;9.210;2023-04-24T07:44:08;10.70;32.30
530;DHT22;251;48.704;9.210;2023-04-24T07:46:35;10.20;32.80
530;DHT22;251;48.704;9.210;2023-04-24T07:49:02;11.00;34.70
530;DHT22;251;48.704;9.210;2023-04-24T07:51:31;11.00;30.90
530;DHT22;251;48.704;9.210;2023-04-24T07:53:59;11.50;30.30
530;DHT22;251;48.704;9.210;2023-04-24T07:56:25;11.50;28.00
530;DHT22;251;48.704;9.210;2023-04-24T07:58:56;11.80;24.90
530;DHT22;251;48.704;9.210;2023-04-24T08:01:23;12.10;24.60
530;DHT22;251;48.704;9.210;2023-04-24T08:03:50;12.50;23.50
530;DHT22;251;48.704;9.210;2023-04-24T08:06:17;12.50;24.30
530;DHT22;251;48.704;9.210;2023-04-24T08:08:46;12.80;23.20
530;DHT22;251;48.704;9.210;2023-04-24T08:11:13;12.90;20.60
530;DHT22;251;48.704;9.210;2023-04-24T08:13:39;12.40;19.50
530;DHT22;251;48.704;9.210;2023-04-24T08:16:06;12.50;19.10
530;DHT22;251;48.704;9.210;2023-04-24T08:18:33;12.80;17.90
530;DHT22;251;48.704;9.210;2023-04-24T08:21:01;12.60;18.10
530;DHT22;251;48.704;9.210;2023-04-24T08:23:28;12.50;18.20
530;DHT22;251;48.704;9.210;2023-04-24T08:25:56;12.60;17.40
530;DHT22;251;48.704;9.210;2023-04-24T08:28:23;12.40;18.80
530;DHT22;251;48.704;9.210;2023-04-24T08:30:50;12.30;17.90
530;DHT22;251;48.704;9.210;2023-04-24T08:33:20;12.10;16.20
530;DHT22;251;48.704;9.210;2023-04-24T08:35:46;12.00;17.50
530;DHT22;251;48.704;9.210;2023-04-24T08:38:13;12.00;18.00
530;DHT22;251;48.704;9.210;2023-04-24T08:40:40;12.30;18.00
530;DHT22;251;48.704;9.210;2023-04-24T08:43:09;12.10;17.20
530;DHT22;251;48.704;9.210;2023-04-24T08:45:36;12.10;17.90
530;DHT22;251;48.704;9.210;2023-04-24T08:48:04;12.20;17.50
530;DHT22;251;48.704;9.210;2023-04-24T08:50:32;12.50;16.90
530;DHT22;251;48.704;9.210;2023-04-24T08:53:01;12.90;15.70
530;DHT22;251;48.704;9.210;2023-04-24T08:55:29;12.90;15.30
530;DHT22;251;48.704;9.210;2023-04-24T08:57:57;12.90;14.00
530;DHT22;251;48.704;9.210;2023-04-24T09:00:28;13.10;13.00
530;DHT22;251;48.704;9.210;2023-04-24T09:02:55;13.20;11.90
530;DHT22;251;48.704;9.210;2023-04-24T09:05:23;12.60;12.00
530;DHT22;251;48.704;9.210;2023-04-24T09:07:56;13.00;12.80
530;DHT22;251;48.704;9.210;2023-04-24T09:10:24;12.90;12.40
530;DHT22;251;48.704;9.210;2023-04-24T09:12:52;13.10;13.20
530;DHT22;251;48.704;9.210;2023-04-24T09:15:19;13.40;12.80
530;DHT22;251;48.704;9.210;2023-04-24T09:17:48;13.40;11.90
530;DHT22;251;48.704;9.210;2023-04-24T09:20:15;13.50;10.40
530;DHT22;251;48.704;9.210;2023-04-24T09:22:42;14.00;11.00
530;DHT22;251;48.704;9.210;2023-04-24T09:25:11;14.20;9.30
530;DHT22;251;48.704;9.210;2023-04-24T09:27:42;14.30;9.20
530;DHT22;251;48.704;9.210;2023-04-24T09:30:11;14.00;8.70
530;DHT22;251;48.704;9.210;2023-04-24T09:32:38;14.00;7.80
530;DHT22;251;48.704;9.210;2023-04-24T09:35:08;14.50;6.60
530;DHT22;251;48.704;9.210;2023-04-24T09:37:36;14.40;7.40
530;DHT22;251;48.704;9.210;2023-04-24T09:40:15;14.70;5.80
530;DHT22;251;48.704;9.210;2023-04-24T09:42:46;15.10;5.40
530;DHT22;251;48.704;9.210;2023-04-24T09:45:13;15.30;4.40
530;DHT22;251;48.704;9.210;2023-04-24T09:47:40;15.20;4.50
530;DHT22;251;48.704;9.210;2023-04-24T09:50:14;15.20;1.20
530;DHT22;251;48.704;9.210;2023-04-24T09:52:42;15.30;1.30
530;DHT22;251;48.704;9.210;2023-04-24T09:55:15;15.90;2.00
530;DHT22;251;48.704;9.210;2023-04-24T09:57:52;15.90;1.00
530;DHT22;251;48.704;9.210;2023-04-24T10:00:24;16.30;1.00
530;DHT22;251;48.704;9.210;2023-04-24T10:02:58;16.10;1.00
530;DHT22;251;48.704;9.210;2023-04-24T10:05:29;16.30;1.00
530;DHT22;251;48.704;9.210;2023-04-24T10:07:57;16.00;1.00
530;DHT22;251;48.704;9.210;2023-04-24T10:10:24;15.60;1.00
530;DHT22;251;48.704;9.210;2023-04-24T10:12:51;15.30;1.00
530;DHT22;251;48.704;9.210;2023-04-24T10:15:18;14.70;1.00
530;DHT22;251;48.704;9.210;2023-04-24T10:17:48;14.50;1.70
530;DHT22;251;48.704;9.210;2023-04-24T10:20:19;14.60;1.10
530;DHT22;251;48.704;9.210;2023-04-24T10:22:49;15.10;1.00
530;DHT22;251;48.704;9.210;2023-04-24T10:25:19;15.60;1.00
530;DHT22;251;48.704;9.210;2023-04-24T10:27:49;15.70;1.20
530;DHT22;251;48.704;9.210;2023-04-24T10:30:17;16.40;1.00
530;DHT22;251;48.704;9.210;2023-04-24T10:32:45;16.50;1.00
530;DHT22;251;48.704;9.210;2023-04-24T10:35:13;17.10;1.00
530;DHT22;251;48.704;9.210;2023-04-24T10:37:43;16.50;1.00
530;DHT22;251;48.704;9.210;2023-04-24T10:40:17;17.00;1.00
530;DHT22;251;48.704;9.210;2023-04-24T10:42:47;16.80;1.00
530;DHT22;251;48.704;9.210;2023-04-24T10:45:17;16.70;1.00
530;DHT22;251;48.704;9.210;2023-04-24T10:48:01;16.30;1.00
530;DHT22;251;48.704;9.210;2023-04-24T10:50:29;16.00;1.00
530;DHT22;251;48.704;9.210;2023-04-24T10:53:06;15.50;1.00
530;DHT22;251;48.704;9.210;2023-04-24T10:55:45;15.50;1.00
530;DHT22;251;48.704;9.210;2023-04-24T10:58:12;15.90;1.00
530;DHT22;251;48.704;9.210;2023-04-24T11:00:41;15.70;1.00
530;DHT22;251;48.704;9.210;2023-04-24T11:03:24;15.80;1.00
530;DHT22;251;48.704;9.210;2023-04-24T11:05:56;15.70;1.00
530;DHT22;251;48.704;9.210;2023-04-24T11:08:28;15.90;1.00
530;DHT22;251;48.704;9.210;2023-04-24T11:10:58;15.60;1.00
530;DHT22;251;48.704;9.210;2023-04-24T11:13:27;15.30;1.00
530;DHT22;251;48.704;9.210;2023-04-24T11:16:13;14.80;1.00
530;DHT22;251;48.704;9.210;2023-04-24T11:18:42;14.60;1.10
530;DHT22;251;48.704;9.210;2023-04-24T11:21:11;14.70;1.40
530;DHT22;251;48.704;9.210;2023-04-24T11:23:39;14.40;1.40
530;DHT22;251;48.704;9.210;2023-04-24T11:26:17;14.20;2.30
530;DHT22;251;48.704;9.210;2023-04-24T11:28:46;14.50;3.60
530;DHT22;251;48.704;9.210;2023-04-24T11:31:35;14.50;2.90
530;DHT22;251;48.704;9.210;2023-04-24T11:34:07;14.60;1.80
530;DHT22;251;48.704;9.210;2023-04-24T11:36:34;14.50;2.30
530;DHT22;251;48.704;9.210;2023-04-24T11:39:01;14.60;1.60
530;DHT22;251;48.704;9.210;2023-04-24T11:41:30;14.50;1.70
530;DHT22;251;48.704;9.210;2023-04-24T11:43:57;14.60;2.60
530;DHT22;251;48.704;9.210;2023-04-24T11:46:27;14.30;2.10
530;DHT22;251;48.704;9.210;2023-04-24T11:48:54;14.40;3.30
530;DHT22;251;48.704;9.210;2023-04-24T11:51:22;13.60;2.50
530;DHT22;251;48.704;9.210;2023-04-24T11:53:49;13.40;3.40
530;DHT22;251;48.704;9.210;2023-04-24T11:56:17;13.10;3.50
530;DHT22;251;48.704;9.210;2023-04-24T11:58:47;13.50;4.30
530;DHT22;251;48.704;9.210;2023-04-24T12:01:14;13.30;4.50
530;DHT22;251;48.704;9.210;2023-04-24T12:03:41;13.70;4.50
530;DHT22;251;48.704;9.210;2023-04-24T12:06:11;14.60;4.50
530;DHT22;251;48.704;9.210;2023-04-24T12:08:38;14.90;3.20
530;DHT22;251;48.704;9.210;2023-04-24T12:11:06;15.40;2.50
530;DHT22;251;48.704;9.210;2023-04-24T12:13:33;15.90;1.00
530;DHT22;251;48.704;9.210;2023-04-24T12:16:03;16.40;1.00
530;DHT22;251;48.704;9.210;2023-04-24T12:18:31;15.70;1.00
530;DHT22;251;48.704;9.210;2023-04-24T12:21:19;15.10;1.00
530;DHT22;251;48.704;9.210;2023-04-24T12:23:46;14.60;2.40
530;DHT22;251;48.704;9.210;2023-04-24T12:26:16;14.30;3.50
530;DHT22;251;48.704;9.210;2023-04-24T12:28:46;13.90;5.10
530;DHT22;251;48.704;9.210;2023-04-24T12:31:15;13.40;4.90
530;DHT22;251;48.704;9.210;2023-04-24T12:33:42;13.50;4.30
530;DHT22;251;48.704;9.210;2023-04-24T12:36:10;13.70;4.20
530;DHT22;251;48.704;9.210;2023-04-24T12:38:39;14.10;5.00
530;DHT22;251;48.704;9.210;2023-04-24T12:41:08;13.90;3.90
530;DHT22;251;48.704;9.210;2023-04-24T12:43:35;14.30;3.80
530;DHT22;251;48.704;9.210;2023-04-24T12:46:02;14.30;4.10
530;DHT22;251;48.704;9.210;2023-04-24T12:48:31;14.10;4.40
530;DHT22;251;48.704;9.210;2023-04-24T12:50:58;13.90;4.20
530;DHT22;251;48.704;9.210;2023-04-24T12:53:27;13.80;4.60
530;DHT22;251;48.704;9.210;2023-04-24T12:55:55;13.40;3.70
530;DHT22;251;48.704;9.210;2023-04-24T12:58:22;13.70;4.40
530;DHT22;251;48.704;9.210;2023-04-24T13:00:49;13.50;4.80
530;DHT22;251;48.704;9.210;2023-04-24T13:03:17;13.00;4.90
530;DHT22;251;48.704;9.210;2023-04-24T13:05:45;13.40;5.90
530;DHT22;251;48.704;9.210;2023-04-24T13:08:12;13.10;6.00
530;DHT22;251;48.704;9.210;2023-04-24T13:10:39;13.00;6.30
530;DHT22;251;48.704;9.210;2023-04-24T13:13:07;13.00;5.80
530;DHT22;251;48.704;9.210;2023-04-24T13:15:34;12.90;7.10
530;DHT22;251;48.704;9.210;2023-04-24T13:18:01;12.90;7.60
530;DHT22;251;48.704;9.210;2023-04-24T13:20:28;13.00;8.70
530;DHT22;251;48.704;9.210;2023-04-24T13:22:56;12.70;11.40
530;DHT22;251;48.704;9.210;2023-04-24T13:25:23;12.50;13.40
530;DHT22;251;48.704;9.210;2023-04-24T13:27:50;12.90;11.10
530;DHT22;251;48.704;9.210;2023-04-24T13:30:17;13.10;11.00
530;DHT22;251;48.704;9.210;2023-04-24T13:32:44;13.60;9.20
530;DHT22;251;48.704;9.210;2023-04-24T13:35:11;15.30;7.00
530;DHT22;251;48.704;9.210;2023-04-24T13:37:37;17.30;2.00
530;DHT22;251;48.704;9.210;2023-04-24T13:40:07;17.90;1.00
530;DHT22;251;48.704;9.210;2023-04-24T13:42:34;17.80;1.00
530;DHT22;251;48.704;9.210;2023-04-24T13:45:01;17.10;1.00
530;DHT22;251;48.704;9.210;2023-04-24T13:47:28;16.20;1.00
530;DHT22;251;48.704;9.210;2023-04-24T13:49:55;15.50;1.00
530;DHT22;251;48.704;9.210;2023-04-24T13:52:22;15.00;2.10
530;DHT22;251;48.704;9.210;2023-04-24T13:54:49;14.40;3.20
530;DHT22;251;48.704;9.210;2023-04-24T13:57:17;13.70;4.10
530;DHT22;251;48.704;9.210;2023-04-24T13:59:44;13.20;6.30
530;DHT22;251;48.704;9.210;2023-04-24T14:02:11;13.00;9.50
530;DHT22;251;48.704;9.210;2023-04-24T14:04:38;12.90;12.80
530;DHT22;251;48.704;9.210;2023-04-24T14:07:05;13.30;10.70
530;DHT22;251;48.704;9.210;2023-04-24T14:09:31;13.70;10.20
530;DHT22;251;48.704;9.210;2023-04-24T14:11:58;13.80;8.40
530;DHT22;251;48.704;9.210;2023-04-24T14:14:27;14.60;7.90
530;DHT22;251;48.704;9.210;2023-04-24T14:16:55;14.80;6.70
530;DHT22;251;48.704;9.210;2023-04-24T14:19:22;14.60;5.30
530;DHT22;251;48.704;9.210;2023-04-24T14:21:49;14.40;5.60
530;DHT22;251;48.704;9.210;2023-04-24T14:24:16;14.60;6.10
530;DHT22;251;48.704;9.210;2023-04-24T14:26:43;14.40;5.30
530;DHT22;251;48.704;9.210;2023-04-24T14:29:09;14.30;5.90
530;DHT22;251;48.704;9.210;2023-04-24T14:31:37;14.10;5.60
530;DHT22;251;48.704;9.210;2023-04-24T14:34:04;14.00;7.20
530;DHT22;251;48.704;9.210;2023-04-24T14:36:31;13.70;13.70
530;DHT22;251;48.704;9.210;2023-04-24T14:38:58;12.90;16.40
530;DHT22;251;48.704;9.210;2023-04-24T14:41:25;12.50;18.60
530;DHT22;251;48.704;9.210;2023-04-24T14:43:51;13.40;21.10
530;DHT22;251;48.704;9.210;2023-04-24T14:46:18;14.20;19.70
530;DHT22;251;48.704;9.210;2023-04-24T14:48:47;15.70;16.70
530;DHT22;251;48.704;9.210;2023-04-24T14:51:13;16.80;9.00
530;DHT22;251;48.704;9.210;2023-04-24T14:53:40;17.80;7.70
530;DHT22;251;48.704;9.210;2023-04-24T14:56:07;18.40;7.20
530;DHT22;251;48.704;9.210;2023-04-24T14:58:34;17.80;4.40
530;DHT22;251;48.704;9.210;2023-04-24T15:01:02;17.10;6.30
530;DHT22;251;48.704;9.210;2023-04-24T15:03:29;17.50;7.40
530;DHT22;251;48.704;9.210;2023-04-24T15:05:57;17.70;6.00
530;DHT22;251;48.704;9.210;2023-04-24T15:08:24;17.90;4.10
530;DHT22;251;48.704;9.210;2023-04-24T15:10:51;17.70;3.90
530;DHT22;251;48.704;9.210;2023-04-24T15:13:18;17.40;5.00
530;DHT22;251;48.704;9.210;2023-04-24T15:15:46;16.60;5.80
530;DHT22;251;48.704;9.210;2023-04-24T15:18:13;15.90;5.90
530;DHT22;251;48.704;9.210;2023-04-24T15:20:39;15.50;7.50
530;DHT22;251;48.704;9.210;2023-04-24T15:23:09;15.00;8.00
530;DHT22;251;48.704;9.210;2023-04-24T15:25:36;14.30;9.00
530;DHT22;251;48.704;9.210;2023-04-24T15:28:03;14.10;10.00
530;DHT22;251;48.704;9.210;2023-04-24T15:30:31;13.90;9.50
530;DHT22;251;48.704;9.210;2023-04-24T15:32:59;13.70;7.60
530;DHT22;251;48.704;9.210;2023-04-24T15:35:26;13.80;7.70
530;DHT22;251;48.704;9.210;2023-04-24T15:37:52;13.70;7.30
530;DHT22;251;48.704;9.210;2023-04-24T15:40:21;13.40;7.70
530;DHT22;251;48.704;9.210;2023-04-24T15:42:48;13.20;7.00
530;DHT22;251;48.704;9.210;2023-04-24T15:45:14;13.10;6.30
530;DHT22;251;48.704;9.210;2023-04-24T15:47:41;12.90;8.20
530;DHT22;251;48.704;9.210;2023-04-24T15:50:10;12.80;12.10
530;DHT22;251;48.704;9.210;2023-04-24T15:52:37;12.30;15.80
530;DHT22;251;48.704;9.210;2023-04-24T15:55:04;12.40;18.00
530;DHT22;251;48.704;9.210;2023-04-24T15:57:33;12.90;19.20
530;DHT22;251;48.704;9.210;2023-04-24T15:59:59;13.00;16.90
530;DHT22;251;48.704;9.210;2023-04-24T16:02:37;13.20;16.60
530;DHT22;251;48.704;9.210;2023-04-24T16:05:04;12.90;17.30
530;DHT22;251;48.704;9.210;2023-04-24T16:07:33;12.80;17.90
530;DHT22;251;48.704;9.210;2023-04-24T16:10:01;12.60;17.80
530;DHT22;251;48.704;9.210;2023-04-24T16:12:27;12.60;19.70
530;DHT22;251;48.704;9.210;2023-04-24T16:14:55;13.10;17.40
530;DHT22;251;48.704;9.210;2023-04-24T16:17:22;13.90;14.40
530;DHT22;251;48.704;9.210;2023-04-24T16:19:49;14.10;12.10
530;DHT22;251;48.704;9.210;2023-04-24T16:22:16;14.30;13.00
530;DHT22;251;48.704;9.210;2023-04-24T16:24:43;14.10;11.40
530;DHT22;251;48.704;9.210;2023-04-24T16:27:12;14.10;10.70
530;DHT22;251;48.704;9.210;2023-04-24T16:29:39;13.50;13.10
530;DHT22;251;48.704;9.210;2023-04-24T16:32:08;13.40;13.90
530;DHT22;251;48.704;9.210;2023-04-24T16:34:35;13.30;16.00
530;DHT22;251;48.704;9.210;2023-04-24T16:37:02;13.20;15.00
530;DHT22;251;48.704;9.210;2023-04-24T16:39:29;13.10;15.90
530;DHT22;251;48.704;9.210;2023-04-24T16:41:56;13.00;17.10
530;DHT22;251;48.704;9.210;2023-04-24T16:44:23;13.10;17.60
530;DHT22;251;48.704;9.210;2023-04-24T16:46:50;12.80;15.80
530;DHT22;251;48.704;9.210;2023-04-24T16:49:19;12.80;14.50
530;DHT22;251;48.704;9.210;2023-04-24T16:51:45;12.60;12.40